Terminal Aerodrome Forecast
Issued by NWS

Home | Current Version | Previous Version | Text Only | Print | Product List | Glossary Off
Versions: 1 2 3 4 5 6 7 8 9 10 11 12 13 14 15 16

972
FTUS43 KMPX 230520
TAFRWF
TAF
KRWF 230520Z 2306/2406 19009KT P6SM BKN150
     FM230800 22008KT P6SM BKN150
     FM231000 25009KT P6SM BKN150
     FM231400 28014G23KT P6SM SCT120
     FM231800 31019G29KT P6SM VCSH OVC080
     FM240000 32014G25KT P6SM SCT120=

USA.gov is the U.S. government's official web portal to all federal, state and local government web resources and services.